createdAt,value
2023-09-07T00:00:30.839Z,21.18
2023-09-07T00:01:30.886Z,21.02
2023-09-07T00:02:39.042Z,21.03
2023-09-07T00:03:32.897Z,20.95
2023-09-07T00:04:30.817Z,20.82
2023-09-07T00:05:30.743Z,20.75
2023-09-07T00:06:30.695Z,20.85
2023-09-07T00:07:30.764Z,20.75
2023-09-07T00:08:30.830Z,20.77
2023-09-07T00:09:30.667Z,20.81
2023-09-07T00:10:30.638Z,20.70
2023-09-07T00:11:30.594Z,20.66
2023-09-07T00:12:30.570Z,20.62
2023-09-07T00:13:30.562Z,20.72
2023-09-07T00:14:30.567Z,20.66
2023-09-07T00:15:30.521Z,20.56
2023-09-07T00:16:30.556Z,20.65
2023-09-07T00:17:30.503Z,20.60
2023-09-07T00:18:30.767Z,20.52
2023-09-07T00:19:30.471Z,20.58
2023-09-07T00:20:30.419Z,20.44
2023-09-07T00:21:30.397Z,20.40
2023-09-07T00:22:30.415Z,20.44
2023-09-07T00:23:30.389Z,20.41
2023-09-07T00:24:30.330Z,20.39
2023-09-07T00:25:30.366Z,20.50
2023-09-07T00:26:30.292Z,20.40
2023-09-07T00:27:30.277Z,20.52
2023-09-07T00:28:30.588Z,20.47
2023-09-07T00:29:30.238Z,20.48
2023-09-07T00:30:30.218Z,20.44
2023-09-07T00:31:30.267Z,20.40
2023-09-07T00:32:30.233Z,20.40
2023-09-07T00:33:30.173Z,20.32
2023-09-07T00:34:30.177Z,20.32
2023-09-07T00:35:30.114Z,20.36
2023-09-07T00:36:30.102Z,20.29
2023-09-07T00:37:30.157Z,20.43
2023-09-07T00:38:30.273Z,20.34
2023-09-07T00:39:30.030Z,20.31
2023-09-07T00:40:30.068Z,20.22
2023-09-07T00:41:29.990Z,20.14
2023-09-07T00:42:30.014Z,20.04
2023-09-07T00:43:29.971Z,20.16
2023-09-07T00:44:29.955Z,20.04
2023-09-07T00:45:29.909Z,19.96
2023-09-07T00:46:29.920Z,19.96
2023-09-07T00:47:29.947Z,20.03
2023-09-07T00:48:30.130Z,20.03
2023-09-07T00:49:29.842Z,20.06
2023-09-07T00:50:29.810Z,20.06
2023-09-07T00:51:29.818Z,19.94
2023-09-07T00:52:29.779Z,19.95
2023-09-07T00:53:29.744Z,19.89
2023-09-07T00:54:29.727Z,19.89
2023-09-07T00:55:29.708Z,19.99
2023-09-07T00:56:29.712Z,19.89
2023-09-07T00:57:29.664Z,19.96
2023-09-07T00:58:29.855Z,19.91
2023-09-07T00:59:29.628Z,19.85
2023-09-07T01:00:29.659Z,19.94
2023-09-07T01:01:29.691Z,19.86
2023-09-07T01:02:29.668Z,19.82
2023-09-07T01:03:29.613Z,19.84
2023-09-07T01:04:29.542Z,19.84
2023-09-07T01:05:29.534Z,19.89
2023-09-07T01:06:29.489Z,19.84
2023-09-07T01:07:29.467Z,19.89
2023-09-07T01:08:29.802Z,19.81
2023-09-07T01:09:29.452Z,19.84
2023-09-07T01:10:29.425Z,19.77
2023-09-07T01:11:30.408Z,19.74
2023-09-07T01:12:29.381Z,19.81
2023-09-07T01:13:29.363Z,19.70
2023-09-07T01:14:29.349Z,19.67
2023-09-07T01:15:29.314Z,19.62
2023-09-07T01:16:29.437Z,19.69
2023-09-07T01:17:29.428Z,19.55
2023-09-07T01:18:29.258Z,19.49
2023-09-07T01:19:29.270Z,19.56
2023-09-07T01:20:29.197Z,19.56
2023-09-07T01:21:29.184Z,19.47
2023-09-07T01:22:29.177Z,19.40
2023-09-07T01:23:29.144Z,19.37
2023-09-07T01:24:29.151Z,19.39
2023-09-07T01:25:29.124Z,19.36
2023-09-07T01:26:29.099Z,19.29
2023-09-07T01:27:29.057Z,19.29
2023-09-07T01:28:29.338Z,19.24
2023-09-07T01:29:29.044Z,19.22
2023-09-07T01:30:29.023Z,19.18
2023-09-07T01:31:29.075Z,19.21
2023-09-07T01:32:28.974Z,19.19
2023-09-07T01:33:28.963Z,19.29
2023-09-07T01:34:29.008Z,19.19
2023-09-07T01:35:29.047Z,19.21
2023-09-07T01:36:28.913Z,19.29
2023-09-07T01:37:28.859Z,19.21
2023-09-07T01:38:29.060Z,19.22
2023-09-07T01:39:28.808Z,19.18
2023-09-07T01:40:28.784Z,19.24
2023-09-07T01:41:28.835Z,19.34
2023-09-07T01:42:28.778Z,19.40
2023-09-07T01:43:28.788Z,19.30
2023-09-07T01:44:28.700Z,19.37
2023-09-07T01:45:28.685Z,19.40
2023-09-07T01:46:28.853Z,19.48
2023-09-07T01:47:28.792Z,19.37
2023-09-07T01:48:28.789Z,19.44
2023-09-07T01:49:28.702Z,19.54
2023-09-07T01:50:28.588Z,19.54
2023-09-07T01:51:28.562Z,19.51
2023-09-07T01:52:28.567Z,19.56
2023-09-07T01:53:28.516Z,19.51
2023-09-07T01:54:28.498Z,19.52
2023-09-07T01:55:28.541Z,19.49
2023-09-07T01:56:28.580Z,19.51
2023-09-07T01:57:28.458Z,19.51
2023-09-07T01:58:28.536Z,19.45
2023-09-07T01:59:28.386Z,19.45
2023-09-07T02:00:28.364Z,19.41
2023-09-07T02:01:28.370Z,19.45
2023-09-07T02:02:28.330Z,19.36
2023-09-07T02:03:28.337Z,19.45
2023-09-07T02:04:28.290Z,19.40
2023-09-07T02:05:28.335Z,19.36
2023-09-07T02:06:28.279Z,19.29
2023-09-07T02:07:28.221Z,19.27
2023-09-07T02:08:28.274Z,19.34
2023-09-07T02:09:28.185Z,19.22
2023-09-07T02:10:28.192Z,19.19
2023-09-07T02:11:28.144Z,19.26
2023-09-07T02:12:28.119Z,19.14
2023-09-07T02:13:28.099Z,19.08
2023-09-07T02:14:28.082Z,19.16
2023-09-07T02:15:28.085Z,19.08
2023-09-07T02:16:28.130Z,19.09
2023-09-07T02:17:28.253Z,19.12
2023-09-07T02:18:28.025Z,19.04
2023-09-07T02:19:28.006Z,18.90
2023-09-07T02:20:28.029Z,18.92
2023-09-07T02:21:27.946Z,18.93
2023-09-07T02:22:27.915Z,18.92
2023-09-07T02:23:27.912Z,18.86
2023-09-07T02:24:28.899Z,18.84
2023-09-07T02:25:27.853Z,18.75
2023-09-07T02:26:27.868Z,18.78
2023-09-07T02:27:27.807Z,18.86
2023-09-07T02:28:27.778Z,18.83
2023-09-07T02:29:27.824Z,18.77
2023-09-07T02:30:27.942Z,18.66
2023-09-07T02:31:27.747Z,18.74
2023-09-07T02:32:27.718Z,18.77
2023-09-07T02:33:27.709Z,18.75
2023-09-07T02:34:27.684Z,18.70
2023-09-07T02:35:27.690Z,18.63
2023-09-07T02:36:27.609Z,18.74
2023-09-07T02:37:27.590Z,18.62
2023-09-07T02:38:27.708Z,18.62
2023-09-07T02:39:27.549Z,18.53
2023-09-07T02:40:27.527Z,18.53
2023-09-07T02:41:27.531Z,18.53
2023-09-07T02:42:27.484Z,18.50
2023-09-07T02:43:27.493Z,18.40
2023-09-07T02:44:27.454Z,18.43
2023-09-07T02:45:27.456Z,18.45
2023-09-07T02:46:27.423Z,18.41
2023-09-07T02:47:27.434Z,18.50
2023-09-07T02:48:27.479Z,18.33
2023-09-07T02:49:27.353Z,18.37
2023-09-07T02:50:27.329Z,18.41
2023-09-07T02:51:27.330Z,18.37
2023-09-07T02:52:27.308Z,18.44
2023-09-07T02:53:27.272Z,18.34
2023-09-07T02:54:27.241Z,18.40
2023-09-07T02:55:27.240Z,18.38
2023-09-07T02:56:27.209Z,18.28
2023-09-07T02:57:27.203Z,18.28
2023-09-07T02:58:27.173Z,18.29
2023-09-07T02:59:27.130Z,18.33
2023-09-07T03:00:27.109Z,18.35
2023-09-07T03:01:27.182Z,18.23
2023-09-07T03:02:27.209Z,18.22
2023-09-07T03:03:27.171Z,18.22
2023-09-07T03:04:27.016Z,18.23
2023-09-07T03:05:27.018Z,18.16
2023-09-07T03:06:27.002Z,18.15
2023-09-07T03:07:27.024Z,18.11
2023-09-07T03:08:26.976Z,18.13
2023-09-07T03:09:26.918Z,18.07
2023-09-07T03:10:26.903Z,18.07
2023-09-07T03:11:26.890Z,18.04
2023-09-07T03:12:26.840Z,18.05
2023-09-07T03:13:26.884Z,18.03
2023-09-07T03:14:26.805Z,18.03
2023-09-07T03:15:26.804Z,18.00
2023-09-07T03:16:26.837Z,18.00
2023-09-07T03:17:26.845Z,18.01
2023-09-07T03:18:26.721Z,18.03
2023-09-07T03:19:26.731Z,17.95
2023-09-07T03:20:26.697Z,18.03
2023-09-07T03:21:26.680Z,18.01
2023-09-07T03:22:26.643Z,17.87
2023-09-07T03:23:26.596Z,17.98
2023-09-07T03:24:26.603Z,17.92
2023-09-07T03:25:26.647Z,17.89
2023-09-07T03:26:26.561Z,17.87
2023-09-07T03:27:26.522Z,17.92
2023-09-07T03:28:26.532Z,17.87
2023-09-07T03:29:26.515Z,17.95
2023-09-07T03:30:27.437Z,17.90
2023-09-07T03:31:26.500Z,17.87
2023-09-07T03:32:26.543Z,17.83
2023-09-07T03:33:26.451Z,17.78
2023-09-07T03:34:26.455Z,17.70
2023-09-07T03:35:26.336Z,17.79
2023-09-07T03:36:26.358Z,17.74
2023-09-07T03:37:26.297Z,17.71
2023-09-07T03:38:26.298Z,17.74
2023-09-07T03:39:26.279Z,17.70
2023-09-07T03:40:26.254Z,17.68
2023-09-07T03:41:26.211Z,17.59
2023-09-07T03:42:26.186Z,17.64
2023-09-07T03:43:26.242Z,17.67
2023-09-07T03:44:26.136Z,17.48
2023-09-07T03:45:26.128Z,17.67
2023-09-07T03:46:26.216Z,17.56
2023-09-07T03:47:26.100Z,17.51
2023-09-07T03:48:26.081Z,17.54
2023-09-07T03:49:26.086Z,17.48
2023-09-07T03:50:26.008Z,17.54
2023-09-07T03:51:25.987Z,17.54
2023-09-07T03:52:26.013Z,17.52
2023-09-07T03:53:25.982Z,17.46
2023-09-07T03:54:25.925Z,17.52
2023-09-07T03:55:25.897Z,17.51
2023-09-07T03:56:25.879Z,17.48
2023-09-07T03:57:25.897Z,17.46
2023-09-07T03:58:25.837Z,17.41
2023-09-07T03:59:25.811Z,17.45
2023-09-07T04:00:25.804Z,17.45
2023-09-07T04:01:25.901Z,17.39
2023-09-07T04:02:25.977Z,17.42
2023-09-07T04:03:26.010Z,17.38
2023-09-07T04:04:25.847Z,17.34
2023-09-07T04:05:25.688Z,17.30
2023-09-07T04:06:25.690Z,17.31
2023-09-07T04:07:25.691Z,17.26
2023-09-07T04:08:25.619Z,17.36
2023-09-07T04:09:25.618Z,17.31
2023-09-07T04:10:25.639Z,17.31
2023-09-07T04:11:25.576Z,17.33
2023-09-07T04:12:25.562Z,17.20
2023-09-07T04:13:25.524Z,17.22
2023-09-07T04:14:25.500Z,17.29
2023-09-07T04:15:25.469Z,17.24
2023-09-07T04:16:25.591Z,17.29
2023-09-07T04:17:25.488Z,17.20
2023-09-07T04:18:25.402Z,17.24
2023-09-07T04:19:25.386Z,17.22
2023-09-07T04:20:25.373Z,17.27
2023-09-07T04:21:25.388Z,17.16
2023-09-07T04:22:25.312Z,17.29
2023-09-07T04:23:25.283Z,17.24
2023-09-07T04:24:25.265Z,17.22
2023-09-07T04:25:25.257Z,17.19
2023-09-07T04:26:25.216Z,17.23
2023-09-07T04:27:25.252Z,17.16
2023-09-07T04:28:25.172Z,17.16
2023-09-07T04:29:25.155Z,17.20
2023-09-07T04:30:25.187Z,17.22
2023-09-07T04:31:25.123Z,17.19
2023-09-07T04:32:25.121Z,17.20
2023-09-07T04:33:25.090Z,17.24
2023-09-07T04:34:25.156Z,17.24
2023-09-07T04:35:25.084Z,17.31
2023-09-07T04:36:24.999Z,17.38
2023-09-07T04:37:24.989Z,17.30
2023-09-07T04:38:24.950Z,17.38
2023-09-07T04:39:24.969Z,17.39
2023-09-07T04:40:24.913Z,17.42
2023-09-07T04:41:24.881Z,17.42
2023-09-07T04:42:24.858Z,17.44
2023-09-07T04:43:24.847Z,17.39
2023-09-07T04:44:24.845Z,17.54
2023-09-07T04:45:24.836Z,17.51
2023-09-07T04:46:24.830Z,17.51
2023-09-07T04:47:24.761Z,17.48
2023-09-07T04:48:24.762Z,17.54
2023-09-07T04:49:24.742Z,17.49
2023-09-07T04:50:24.745Z,17.57
2023-09-07T04:51:24.672Z,17.52
2023-09-07T04:52:24.651Z,17.54
2023-09-07T04:53:24.654Z,17.41
2023-09-07T04:54:24.599Z,17.49
2023-09-07T04:55:24.582Z,17.63
2023-09-07T04:56:24.582Z,17.54
2023-09-07T04:57:25.543Z,17.63
2023-09-07T04:58:24.543Z,17.65
2023-09-07T04:59:24.503Z,17.67
2023-09-07T05:00:24.479Z,18.00
2023-09-07T05:01:24.531Z,18.45
2023-09-07T05:02:24.478Z,18.74
2023-09-07T05:03:24.482Z,19.15
2023-09-07T05:04:24.486Z,19.66
2023-09-07T05:05:24.375Z,20.06
2023-09-07T05:06:24.576Z,20.52
2023-09-07T05:07:24.351Z,20.96
2023-09-07T05:08:24.338Z,21.39
2023-09-07T05:09:24.288Z,21.69
2023-09-07T05:10:24.363Z,22.15
2023-09-07T05:11:24.249Z,22.57
2023-09-07T05:12:24.295Z,23.12
2023-09-07T05:13:24.206Z,23.46
2023-09-07T05:14:24.188Z,23.91
2023-09-07T05:15:24.164Z,24.35
2023-09-07T05:16:24.278Z,24.53
2023-09-07T05:17:24.182Z,24.88
2023-09-07T05:18:24.150Z,25.32
2023-09-07T05:19:24.097Z,25.73
2023-09-07T05:20:24.074Z,26.07
2023-09-07T05:21:24.172Z,26.40
2023-09-07T05:22:24.068Z,26.75
2023-09-07T05:23:24.018Z,27.18
2023-09-07T05:24:23.996Z,27.55
2023-09-07T05:25:23.999Z,27.86
2023-09-07T05:26:24.016Z,27.92
2023-09-07T05:27:23.982Z,28.02
2023-09-07T05:28:23.938Z,28.42
2023-09-07T05:29:23.928Z,28.75
2023-09-07T05:30:23.994Z,28.93
2023-09-07T05:31:24.012Z,29.29
2023-09-07T05:32:23.859Z,29.41
2023-09-07T05:33:23.838Z,29.42
2023-09-07T05:34:23.816Z,29.59
2023-09-07T05:35:23.861Z,29.31
2023-09-07T05:36:23.783Z,29.45
2023-09-07T05:37:23.832Z,29.39
2023-09-07T05:38:23.754Z,29.84
2023-09-07T05:39:23.734Z,29.84
2023-09-07T05:40:23.764Z,29.93
2023-09-07T05:41:23.702Z,30.30
2023-09-07T05:42:23.686Z,30.59
2023-09-07T05:43:23.695Z,30.77
2023-09-07T05:44:23.679Z,30.91
2023-09-07T05:45:23.689Z,31.24
2023-09-07T05:46:23.766Z,31.46
2023-09-07T05:47:23.649Z,31.89
2023-09-07T05:48:23.586Z,32.23
2023-09-07T05:49:23.635Z,32.36
2023-09-07T05:50:23.542Z,31.52
2023-09-07T05:51:23.531Z,31.49
2023-09-07T05:52:23.570Z,31.90
2023-09-07T05:53:23.550Z,32.12
2023-09-07T05:54:23.592Z,31.73
2023-09-07T05:55:24.338Z,31.80
2023-09-07T05:56:23.492Z,31.93
2023-09-07T05:57:23.543Z,32.37
2023-09-07T05:58:23.439Z,32.01
2023-09-07T05:59:23.426Z,31.61
2023-09-07T06:00:23.417Z,31.09
2023-09-07T06:01:23.397Z,30.18
2023-09-07T06:02:23.370Z,29.23
2023-09-07T06:03:23.466Z,29.12
2023-09-07T06:04:23.420Z,28.64
2023-09-07T06:05:23.297Z,28.41
2023-09-07T06:06:23.278Z,28.59
2023-09-07T06:07:23.259Z,28.41
2023-09-07T06:08:23.263Z,28.23
2023-09-07T06:09:23.226Z,28.52
2023-09-07T06:10:23.202Z,29.44
2023-09-07T06:11:23.189Z,29.32
2023-09-07T06:12:23.201Z,29.16
2023-09-07T06:13:23.192Z,28.69
2023-09-07T06:14:23.147Z,28.79
2023-09-07T06:15:23.159Z,29.29
2023-09-07T06:16:23.158Z,29.35
2023-09-07T06:17:23.164Z,28.98
2023-09-07T06:18:23.070Z,29.35
2023-09-07T06:19:23.142Z,29.72
2023-09-07T06:20:23.065Z,30.15
2023-09-07T06:21:23.027Z,30.08
2023-09-07T06:22:23.043Z,29.38
2023-09-07T06:23:22.997Z,29.51
2023-09-07T06:24:22.979Z,29.81
2023-09-07T06:25:23.013Z,29.98
2023-09-07T06:26:22.967Z,30.47
2023-09-07T06:27:22.965Z,31.07
2023-09-07T06:28:22.957Z,31.58
2023-09-07T06:29:23.634Z,31.51
2023-09-07T06:30:22.877Z,31.44
2023-09-07T06:31:23.053Z,31.69
2023-09-07T06:32:22.893Z,32.12
2023-09-07T06:33:22.900Z,32.23
2023-09-07T06:34:22.884Z,31.34
2023-09-07T06:35:22.797Z,31.17
2023-09-07T06:36:33.689Z,31.27
2023-09-07T06:37:24.780Z,31.28
2023-09-07T06:38:22.746Z,31.29
2023-09-07T06:39:22.730Z,31.80
2023-09-07T06:40:22.710Z,31.39
2023-09-07T06:41:22.732Z,31.03
2023-09-07T06:42:22.688Z,31.40
2023-09-07T06:43:22.691Z,31.76
2023-09-07T06:44:22.657Z,31.89
2023-09-07T06:45:22.677Z,30.65
2023-09-07T06:46:22.681Z,30.13
2023-09-07T06:47:22.606Z,29.61
2023-09-07T06:48:22.608Z,29.59
2023-09-07T06:49:22.563Z,29.27
2023-09-07T06:50:22.584Z,29.07
2023-09-07T06:51:22.541Z,29.32
2023-09-07T06:52:22.624Z,29.42
2023-09-07T06:53:22.508Z,29.51
2023-09-07T06:54:23.524Z,29.34
2023-09-07T06:55:22.503Z,29.16
2023-09-07T06:56:22.464Z,28.98
2023-09-07T06:57:22.499Z,28.98
2023-09-07T06:58:22.426Z,29.44
2023-09-07T06:59:22.441Z,29.50
2023-09-07T07:00:22.424Z,29.63
2023-09-07T07:01:22.423Z,30.28
2023-09-07T07:02:22.361Z,30.88
2023-09-07T07:03:22.451Z,31.34
2023-09-07T07:04:22.506Z,31.49
2023-09-07T07:05:22.321Z,31.97
2023-09-07T07:06:22.314Z,32.43
2023-09-07T07:07:22.328Z,32.90
2023-09-07T07:08:22.277Z,33.52
2023-09-07T07:09:22.304Z,33.77
2023-09-07T07:10:22.316Z,33.50
2023-09-07T07:11:22.231Z,33.69
2023-09-07T07:12:22.210Z,34.05
2023-09-07T07:13:22.225Z,34.60
2023-09-07T07:14:22.207Z,34.16
2023-09-07T07:15:22.163Z,33.98
2023-09-07T07:16:22.252Z,33.46
2023-09-07T07:17:22.195Z,33.31
2023-09-07T07:18:22.145Z,32.43
2023-09-07T07:19:36.819Z,31.65
2023-09-07T07:20:22.155Z,32.03
2023-09-07T07:21:22.076Z,32.04
2023-09-07T07:22:22.292Z,32.01
2023-09-07T07:23:22.067Z,31.65
2023-09-07T07:24:22.023Z,32.15
2023-09-07T07:25:21.998Z,31.10
2023-09-07T07:26:21.992Z,30.47
2023-09-07T07:27:22.025Z,31.24
2023-09-07T07:28:21.958Z,31.46
2023-09-07T07:29:22.025Z,31.49
2023-09-07T07:30:21.934Z,30.97
2023-09-07T07:31:21.963Z,31.07
2023-09-07T07:32:21.924Z,30.55
2023-09-07T07:33:22.036Z,31.22
2023-09-07T07:34:21.863Z,31.25
2023-09-07T07:35:21.848Z,30.54
2023-09-07T07:36:21.858Z,30.34
2023-09-07T07:37:21.846Z,30.80
2023-09-07T07:38:21.791Z,30.77
2023-09-07T07:39:22.783Z,31.34
2023-09-07T07:40:21.777Z,31.29
2023-09-07T07:41:21.780Z,31.99
2023-09-07T07:42:21.743Z,32.53
2023-09-07T07:43:21.795Z,32.22
2023-09-07T07:44:21.702Z,32.34
2023-09-07T07:45:21.685Z,32.73
2023-09-07T07:46:21.784Z,33.12
2023-09-07T07:47:21.658Z,33.47
2023-09-07T07:48:21.659Z,33.04
2023-09-07T07:49:21.640Z,32.56
2023-09-07T07:50:21.653Z,31.89
2023-09-07T07:51:21.623Z,31.71
2023-09-07T07:52:21.567Z,31.78
2023-09-07T07:53:21.683Z,32.38
2023-09-07T07:54:21.550Z,32.19
2023-09-07T07:55:21.550Z,31.09
2023-09-07T07:56:21.570Z,30.25
2023-09-07T07:57:21.505Z,29.94
2023-09-07T07:58:21.495Z,30.05
2023-09-07T07:59:21.458Z,30.12
2023-09-07T08:00:22.480Z,30.53
2023-09-07T08:01:21.743Z,30.57
2023-09-07T08:02:22.420Z,30.63
2023-09-07T08:03:21.438Z,30.61
2023-09-07T08:04:21.494Z,30.24
2023-09-07T08:05:21.457Z,29.79
2023-09-07T08:06:21.366Z,29.47
2023-09-07T08:07:21.376Z,29.07
2023-09-07T08:08:21.333Z,29.87
2023-09-07T08:09:21.336Z,30.80
2023-09-07T08:10:21.318Z,31.28
2023-09-07T08:11:21.277Z,31.65
2023-09-07T08:12:21.263Z,31.42
2023-09-07T08:13:21.253Z,31.31
2023-09-07T08:14:21.297Z,31.49
2023-09-07T08:15:21.210Z,31.10
2023-09-07T08:16:21.288Z,31.24
2023-09-07T08:17:21.360Z,31.29
2023-09-07T08:18:21.300Z,31.34
2023-09-07T08:19:21.241Z,30.92
2023-09-07T08:20:21.154Z,30.57
2023-09-07T08:21:21.115Z,30.31
2023-09-07T08:22:21.139Z,30.53
2023-09-07T08:23:21.124Z,30.39
2023-09-07T08:24:21.074Z,29.88
2023-09-07T08:25:21.111Z,29.59
2023-09-07T08:26:21.049Z,29.39
2023-09-07T08:27:21.044Z,29.78
2023-09-07T08:28:21.039Z,29.75
2023-09-07T08:29:20.996Z,29.60
2023-09-07T08:30:20.979Z,29.54
2023-09-07T08:31:21.008Z,29.16
2023-09-07T08:32:21.039Z,29.29
2023-09-07T08:33:21.065Z,29.35
2023-09-07T08:34:20.913Z,28.89
2023-09-07T08:35:20.954Z,28.69
2023-09-07T08:36:20.877Z,28.78
2023-09-07T08:37:23.750Z,28.88
2023-09-07T08:38:20.850Z,28.62
2023-09-07T08:39:20.848Z,28.75
2023-09-07T08:40:20.829Z,28.59
2023-09-07T08:41:20.801Z,28.54
2023-09-07T08:42:20.824Z,28.62
2023-09-07T08:43:20.774Z,28.69
2023-09-07T08:44:20.759Z,28.91
2023-09-07T08:45:20.802Z,29.05
2023-09-07T08:46:20.784Z,29.01
2023-09-07T08:47:20.730Z,29.34
2023-09-07T08:48:20.777Z,29.16
2023-09-07T08:49:20.672Z,29.32
2023-09-07T08:50:20.679Z,29.49
2023-09-07T08:51:20.811Z,29.75
2023-09-07T08:52:20.688Z,29.75
2023-09-07T08:53:20.610Z,29.84
2023-09-07T08:54:20.618Z,29.97
2023-09-07T08:55:20.577Z,30.03
2023-09-07T08:56:20.642Z,29.79
2023-09-07T08:57:20.544Z,29.39
2023-09-07T08:58:20.513Z,29.29
2023-09-07T08:59:21.510Z,29.19
2023-09-07T09:00:20.512Z,29.01
2023-09-07T09:01:20.582Z,28.97
2023-09-07T09:02:20.528Z,29.08
2023-09-07T09:03:20.516Z,28.79
2023-09-07T09:04:20.537Z,28.64
2023-09-07T09:05:20.438Z,28.78
2023-09-07T09:06:20.395Z,28.91
2023-09-07T09:07:20.473Z,28.76
2023-09-07T09:08:20.490Z,29.08
2023-09-07T09:09:20.478Z,29.04
2023-09-07T09:10:20.346Z,28.76
2023-09-07T09:11:20.296Z,28.45
2023-09-07T09:12:20.280Z,28.42
2023-09-07T09:13:20.270Z,28.78
2023-09-07T09:14:20.283Z,29.10
2023-09-07T09:15:20.259Z,29.44
2023-09-07T09:16:20.269Z,29.41
2023-09-07T09:17:20.205Z,29.10
2023-09-07T09:18:20.295Z,29.57
2023-09-07T09:19:20.183Z,30.02
2023-09-07T09:20:20.152Z,30.15
2023-09-07T09:21:20.120Z,30.47
2023-09-07T09:22:20.106Z,30.06
2023-09-07T09:23:20.134Z,29.42
2023-09-07T09:24:20.103Z,29.38
2023-09-07T09:25:20.057Z,29.59
2023-09-07T09:26:20.035Z,28.94
2023-09-07T09:27:20.024Z,29.05
2023-09-07T09:28:20.136Z,29.38
2023-09-07T09:29:19.981Z,29.95
2023-09-07T09:30:19.962Z,29.91
2023-09-07T09:31:20.016Z,29.66
2023-09-07T09:32:19.928Z,29.82
2023-09-07T09:33:19.969Z,30.09
2023-09-07T09:34:19.913Z,30.12
2023-09-07T09:35:19.882Z,30.03
2023-09-07T09:36:19.889Z,30.06
2023-09-07T09:37:19.866Z,30.03
2023-09-07T09:38:19.859Z,29.84
2023-09-07T09:39:19.806Z,29.69
2023-09-07T09:40:19.927Z,29.32
2023-09-07T09:41:19.769Z,28.96
2023-09-07T09:42:19.782Z,29.01
2023-09-07T09:43:19.733Z,29.14
2023-09-07T09:44:19.716Z,28.81
2023-09-07T09:45:19.698Z,29.08
2023-09-07T09:46:19.708Z,29.41
2023-09-07T09:47:19.835Z,28.59
2023-09-07T09:48:19.736Z,28.02
2023-09-07T09:49:19.636Z,28.25
2023-09-07T09:50:19.688Z,28.62
2023-09-07T09:51:19.617Z,28.59
2023-09-07T09:52:19.612Z,28.69
2023-09-07T09:53:19.671Z,28.91
2023-09-07T09:54:19.576Z,28.64
2023-09-07T09:55:19.529Z,28.49
2023-09-07T09:56:19.557Z,28.41
2023-09-07T09:57:19.523Z,28.41
2023-09-07T09:58:19.478Z,28.56
2023-09-07T09:59:19.517Z,28.38
2023-09-07T10:00:19.458Z,28.32
2023-09-07T10:01:19.503Z,28.39
2023-09-07T10:02:19.478Z,28.37
2023-09-07T10:03:19.439Z,28.56
2023-09-07T10:04:19.378Z,28.67
2023-09-07T10:05:19.376Z,28.66
2023-09-07T10:06:19.367Z,28.75
2023-09-07T10:07:19.389Z,28.75
2023-09-07T10:08:19.367Z,28.51
2023-09-07T10:09:19.305Z,28.39
2023-09-07T10:10:19.294Z,27.95
2023-09-07T10:11:19.278Z,27.90
2023-09-07T10:12:19.243Z,27.98
2023-09-07T10:13:19.208Z,27.83
2023-09-07T10:14:19.245Z,27.55
2023-09-07T10:15:19.263Z,27.59
2023-09-07T10:16:19.216Z,27.54
2023-09-07T10:17:19.165Z,27.40
2023-09-07T10:18:19.159Z,27.49
2023-09-07T10:19:19.096Z,27.64
2023-09-07T10:20:19.222Z,27.55
2023-09-07T10:21:19.069Z,27.44
2023-09-07T10:22:19.054Z,27.35
2023-09-07T10:23:19.047Z,27.55
2023-09-07T10:24:19.041Z,27.74
2023-09-07T10:25:19.032Z,27.68
2023-09-07T10:26:19.008Z,27.55
2023-09-07T10:27:18.956Z,27.51
2023-09-07T10:28:18.934Z,27.32
2023-09-07T10:29:18.957Z,27.52
2023-09-07T10:30:18.929Z,27.44
2023-09-07T10:31:18.936Z,27.37
2023-09-07T10:32:20.652Z,27.48
2023-09-07T10:33:20.886Z,27.59
2023-09-07T10:34:19.848Z,27.44
2023-09-07T10:35:19.824Z,27.47
2023-09-07T10:36:18.796Z,27.47
2023-09-07T10:37:18.790Z,27.27
2023-09-07T10:38:18.792Z,27.21
2023-09-07T10:39:19.805Z,27.49
2023-09-07T10:40:19.861Z,27.20
2023-09-07T10:41:18.781Z,27.17
2023-09-07T10:42:18.680Z,27.15
2023-09-07T10:43:18.704Z,27.32
2023-09-07T10:44:18.647Z,27.51
2023-09-07T10:45:18.746Z,27.64
2023-09-07T10:46:18.632Z,27.63
2023-09-07T10:47:18.652Z,27.45
2023-09-07T10:48:18.710Z,27.32
2023-09-07T10:49:18.559Z,27.22
2023-09-07T10:50:18.542Z,27.22
2023-09-07T10:51:18.531Z,27.17
2023-09-07T10:52:18.673Z,27.08
2023-09-07T10:53:18.488Z,27.10
2023-09-07T10:54:18.488Z,27.17
2023-09-07T10:55:18.514Z,27.39
2023-09-07T10:56:18.522Z,27.25
2023-09-07T10:57:18.496Z,27.15
2023-09-07T10:58:21.598Z,27.40
2023-09-07T10:59:20.421Z,27.25
2023-09-07T11:00:18.365Z,27.42
2023-09-07T11:01:18.429Z,27.39
2023-09-07T11:02:18.424Z,27.49
2023-09-07T11:03:18.414Z,27.47
2023-09-07T11:04:18.607Z,27.59
2023-09-07T11:05:18.274Z,27.47
2023-09-07T11:06:18.293Z,27.36
2023-09-07T11:07:18.259Z,27.29
2023-09-07T11:08:18.233Z,27.52
2023-09-07T11:09:18.249Z,27.55
2023-09-07T11:10:18.197Z,27.65
2023-09-07T11:11:18.201Z,27.52
2023-09-07T11:12:18.158Z,27.83
2023-09-07T11:13:18.130Z,27.82
2023-09-07T11:14:18.159Z,27.59
2023-09-07T11:15:18.221Z,27.65
2023-09-07T11:16:18.165Z,27.59
2023-09-07T11:17:18.064Z,27.67
2023-09-07T11:18:18.061Z,27.63
2023-09-07T11:19:18.080Z,27.85
2023-09-07T11:20:18.049Z,27.85
2023-09-07T11:21:18.023Z,27.82
2023-09-07T11:22:18.017Z,27.93
2023-09-07T11:23:17.960Z,28.00
2023-09-07T11:24:17.939Z,27.98
2023-09-07T11:25:17.952Z,27.68
2023-09-07T11:26:17.903Z,27.73
2023-09-07T11:27:17.893Z,27.65
2023-09-07T11:28:17.873Z,27.63
2023-09-07T11:29:17.855Z,27.86
2023-09-07T11:30:17.867Z,27.87
2023-09-07T11:31:17.918Z,27.92
2023-09-07T11:32:17.856Z,28.01
2023-09-07T11:33:17.895Z,28.02
2023-09-07T11:34:17.791Z,28.02
2023-09-07T11:35:17.878Z,27.98
2023-09-07T11:36:17.751Z,27.89
2023-09-07T11:37:17.723Z,27.77
2023-09-07T11:38:17.701Z,27.96
2023-09-07T11:39:17.698Z,28.04
2023-09-07T11:40:17.698Z,27.68
2023-09-07T11:41:17.640Z,27.70
2023-09-07T11:42:17.650Z,27.96
2023-09-07T11:43:17.605Z,27.89
2023-09-07T11:44:17.610Z,27.83
2023-09-07T11:45:17.596Z,27.78
2023-09-07T11:46:17.627Z,27.95
2023-09-07T11:47:17.539Z,28.00
2023-09-07T11:48:17.550Z,28.01
2023-09-07T11:49:17.575Z,28.00
2023-09-07T11:50:17.482Z,27.68
2023-09-07T11:51:17.488Z,27.59
2023-09-07T11:52:17.454Z,27.63
2023-09-07T11:53:17.459Z,27.71
2023-09-07T11:54:17.411Z,27.80
2023-09-07T11:55:17.444Z,28.05
2023-09-07T11:56:17.487Z,28.15
2023-09-07T11:57:17.430Z,28.15
2023-09-07T11:58:17.375Z,28.08
2023-09-07T11:59:17.374Z,27.87
2023-09-07T12:00:17.302Z,27.77
2023-09-07T12:01:17.330Z,27.93
2023-09-07T12:02:17.412Z,28.05
2023-09-07T12:03:17.307Z,28.17
2023-09-07T12:04:17.290Z,28.02
2023-09-07T12:05:17.231Z,28.10
2023-09-07T12:06:17.191Z,28.08
2023-09-07T12:07:17.244Z,27.98
2023-09-07T12:08:17.154Z,28.07
2023-09-07T12:09:17.133Z,28.08
2023-09-07T12:10:17.156Z,28.07
2023-09-07T12:11:17.098Z,27.93
2023-09-07T12:12:17.111Z,27.87
2023-09-07T12:13:17.071Z,27.71
2023-09-07T12:14:17.075Z,27.82
2023-09-07T12:15:17.048Z,27.90
2023-09-07T12:16:17.150Z,28.14
2023-09-07T12:17:17.156Z,28.08
2023-09-07T12:18:17.228Z,28.14
2023-09-07T12:19:16.957Z,28.17
2023-09-07T12:20:16.960Z,28.04
2023-09-07T12:21:16.946Z,28.14
2023-09-07T12:22:16.901Z,28.15
2023-09-07T12:23:16.897Z,28.17
2023-09-07T12:24:16.889Z,28.08
2023-09-07T12:25:20.031Z,28.10
2023-09-07T12:26:16.909Z,28.20
2023-09-07T12:27:16.818Z,28.25
2023-09-07T12:28:16.794Z,28.26
2023-09-07T12:29:16.823Z,28.22
2023-09-07T12:30:16.789Z,28.19
2023-09-07T12:31:16.919Z,28.17
2023-09-07T12:32:16.768Z,28.10
2023-09-07T12:33:16.709Z,28.20
2023-09-07T12:34:16.709Z,28.17
2023-09-07T12:35:17.246Z,28.32
2023-09-07T12:36:16.653Z,28.30
2023-09-07T12:37:16.637Z,28.22
2023-09-07T12:38:16.621Z,28.29
2023-09-07T12:39:16.612Z,28.17
2023-09-07T12:40:16.610Z,28.14
2023-09-07T12:41:16.575Z,28.02
2023-09-07T12:42:16.545Z,28.11
2023-09-07T12:43:16.527Z,27.96
2023-09-07T12:44:16.597Z,28.00
2023-09-07T12:45:16.656Z,27.96
2023-09-07T12:46:16.480Z,28.05
2023-09-07T12:47:16.480Z,27.92
2023-09-07T12:48:16.445Z,27.86
2023-09-07T12:49:16.458Z,27.85
2023-09-07T12:50:16.420Z,27.82
2023-09-07T12:51:16.396Z,27.78
2023-09-07T12:52:16.384Z,27.78